Badger Spring Valley, Nevada Weather observations

Data are for 10 minute period ending at time listed.
 Day   Time   Solar   Ave.   Ave.  Ave.  Vector  Max.   Baro.   Total    
  of    of     Rad.   Air    Rel.  Wind   Wind   Wind  Press.  Precip.   
Year   Day            Temp.  Hum.  Speed  Dir.   Gust                    
2015   (PST)  Kw/m2    F      %     mph   deg.    mph    mb.     in.     
-------------------------------------------------------------------------
 244    0:00   0.00   70.6    21    9.2   286    11.7   830.9    0.00 
 244    0:10   0.00   70.2    22    8.8   285    10.3   830.9    0.00 
 244    0:20   0.00   70.1    22    8.5   286    10.0   830.8    0.00 
 244    0:30   0.00   69.9    22    9.0   288    10.7   830.8    0.00 
 244    0:40   0.00   69.8    22    9.0   289    10.5   830.8    0.00 
 244    0:50   0.00   69.7    23    9.3   290    10.4   830.8    0.00 
 244    1:00   0.00   69.6    23    7.9   292     9.3   830.8    0.00 
 244    1:10   0.00   68.9    24    5.6   290     7.7   830.8    0.00 
 244    1:20   0.00   69.0    24    6.5   291     8.3   830.7    0.00 
 244    1:30   0.00   69.9    23    6.0   288     7.7   830.7    0.00 
 244    1:40   0.00   69.9    24    6.0   284     7.1   830.8    0.00 
 244    1:50   0.00   69.9    24    6.1   284     7.2   830.8    0.00 
 244    2:00   0.00   69.2    25    6.0   279     7.1   830.8    0.00 
 244    2:10   0.00   68.8    25    6.0   283     6.9   830.8    0.00 
 244    2:20   0.00   68.8    25    6.2   285     6.9   830.8    0.00 
 244    2:30   0.00   68.6    25    6.2   284     7.7   830.8    0.00 
 244    2:40   0.00   67.7    26    6.4   280     8.0   830.8    0.00 
 244    2:50   0.00   67.0    27    5.7   269     6.9   830.8    0.00 
 244    3:00   0.00   66.9    27    5.9   273     7.5   830.7    0.00 
 244    3:10   0.00   67.9    26    5.6   270     7.8   830.7    0.00 
 244    3:20   0.00   67.9    25    5.2   264     6.7   830.7    0.00 
 244    3:30   0.00   67.4    25    5.1   269     6.9   830.8    0.00 
 244    3:40   0.00   67.1    25    5.6   271     7.6   830.8    0.00 
 244    3:50   0.00   66.8    26    5.6   275     7.5   830.8    0.00 
 244    4:00   0.00   66.3    26    6.6   282     7.7   830.8    0.00 
 244    4:10   0.00   67.5    25    5.4   276     7.2   830.9    0.00 
 244    4:20   0.00   66.9    26    5.8   280     7.6   830.9    0.00 
 244    4:30   0.00   65.8    26    5.3   280     6.5   830.9    0.00 
 244    4:40   0.00   65.1    27    5.7   285     7.2   831.0    0.00 
 244    4:50   0.00   64.5    28    6.5   285     7.7   831.0    0.00 
 244    5:00   0.00   65.6    26    6.3   279     7.5   831.0    0.00 
 244    5:10   0.00   65.9    26    6.8   283     8.4   831.0    0.00 
 244    5:20   0.01   66.0    26    6.6   288     8.3   831.0    0.00 
 244    5:30   0.03   65.8    26    5.4   290     6.5   831.1    0.00 
 244    5:40   0.06   66.5    25    4.4   284     6.0   831.3    0.00 
 244    5:50   0.08   67.4    25    4.3   283     7.1   831.4    0.00 
 244    6:00   0.11   69.1    24    3.4   282     5.8   831.6    0.00 
 244    6:10   0.14   70.9    23    3.4   317     5.6   831.8    0.00 
 244    6:20   0.18   72.9    23    1.2    78     2.8   831.8    0.00 
 244    6:30   0.21   73.9    22    4.1   160     6.8   832.0    0.00 
 244    6:40   0.25   73.5    23    5.7   158    10.5   832.0    0.00 
 244    6:50   0.29   73.9    23    4.8   160     7.5   832.0    0.00 
 244    7:00   0.33   74.2    24    6.3   132    11.2   832.1    0.00 
 244    7:10   0.36   74.4    25    5.4   155     9.3   832.1    0.00 
 244    7:20   0.40   74.3    26    6.3   151    11.6   832.1    0.00 
 244    7:30   0.44   74.7    26    8.0   153    11.5   832.1    0.00 
 244    7:40   0.48   75.0    26    7.5   146    11.8   832.1    0.00 
 244    7:50   0.52   75.1    26    8.1   166    13.4   832.2    0.00 
 244    8:00   0.55   74.7    26    8.5   163    12.3   832.2    0.00 
 244    8:10   0.59   74.8    26    8.1   149    13.1   832.2    0.00 
 244    8:20   0.62   75.4    26    8.8   144    13.4   832.3    0.00 
 244    8:30   0.66   75.8    26    8.9   135    16.0   832.4    0.00 
 244    8:40   0.69   76.4    25    9.7   135    15.0   832.4    0.00 
 244    8:50   0.72   76.7    25   10.4   132    15.1   832.5    0.00 
 244    9:00   0.75   77.3    24   10.3   139    14.5   832.5    0.00 
 244    9:10   0.78   77.4    24    9.8   137    14.9   832.5    0.00 
 244    9:20   0.81   78.0    24    9.2   138    14.9   832.5    0.00 
 244    9:30   0.83   78.5    23    9.4   152    15.6   832.5    0.00 
 244    9:40   0.86   78.4    23   10.9   124    15.2   832.4    0.00 
 244    9:50   0.88   79.6    22   10.7   143    18.3   832.4    0.00 
 244   10:00   0.90   79.8    21   11.4   140    20.5   832.3    0.00 
 244   10:10   0.92   79.5    21   11.0   139    18.1   832.3    0.00 
 244   10:20   0.93   80.0    21   10.0   131    16.7   832.1    0.00 
 244   10:30   0.94   80.4    21   12.3   134    20.8   832.1    0.00 
 244   10:40   0.96   80.2    21   12.4   134    21.2   832.1    0.00 
 244   10:50   0.97   80.4    21   11.9   152    20.0   832.0    0.00 
 244   11:00   0.98   81.3    21   10.9   146    18.3   832.0    0.00 
 244   11:10   0.98   80.9    21    9.8   146    18.1   831.9    0.00 
 244   11:20   0.99   81.2    21   11.3   125    20.4   831.7    0.00 
 244   11:30   0.98   81.3    21   14.3   129    23.1   831.7    0.00 
 244   11:40   0.99   81.7    21   13.6   136    20.1   831.7    0.00 
 244   11:50   1.00   81.8    21   14.6   127    21.6   831.6    0.00 
 244   12:00   1.00   82.2    21   14.1   132    21.5   831.6    0.00 
 244   12:10   1.00   82.1    20   13.9   125    25.4   831.6    0.00 
 244   12:20   0.99   82.8    21   13.4   133    22.6   831.5    0.00 
 244   12:30   0.93   82.6    21   13.2   125    22.5   831.4    0.00 
 244   12:40   0.97   83.1    19   15.3   130    23.2   831.3    0.00 
 244   12:50   0.96   83.1    20   11.9   136    19.4   831.3    0.00 
 244   13:00   0.95   83.8    19   15.2   132    21.5   831.2    0.00 
 244   13:10   0.94   83.3    19   10.6   136    17.6   831.2    0.00 
 244   13:20   0.92   85.5    16   11.6   176    21.7   831.0    0.00 
 244   13:30   0.92   85.3    20   12.0   144    20.0   830.9    0.00 
 244   13:40   0.53   84.1    19   13.6   145    20.8   830.7    0.00 
 244   13:50   0.85   83.5    20   12.8   143    23.5   830.7    0.00 
 244   14:00   0.85   83.8    21   16.4   132    23.5   830.5    0.00 
 244   14:10   0.78   83.8    20   17.0   145    37.3   830.3    0.00 
 244   14:20   0.80   85.2    15   12.6   209    21.5   830.2    0.00 
 244   14:30   0.80   85.1    18   15.3   152    25.1   830.1    0.00 
 244   14:40   0.73   84.6    20   15.0   134    22.4   830.0    0.00 
 244   14:50   0.70   85.0    15   13.0   192    22.7   830.0    0.00 
 244   15:00   0.67   86.0    14   11.2   176    21.3   830.0    0.00 
 244   15:10   0.64   85.9    14   13.6   177    21.9   829.9    0.00 
 244   15:20   0.61   85.2    14   10.9   226    16.6   829.9    0.00 
 244   15:30   0.57   85.7    13    7.3   194    23.8   829.8    0.00 
 244   15:40   0.53   85.4    14   12.9   166    18.4   829.8    0.00 
 244   15:50   0.49   84.8    14    7.9   167    14.1   829.7    0.00 
 244   16:00   0.46   84.6    14   14.5   174    20.8   829.7    0.00 
 244   16:10   0.41   84.2    14    8.4   191    17.2   829.7    0.00 
 244   16:20   0.37   84.2    14   11.4   188    20.2   829.7    0.00 
 244   16:30   0.34   83.6    15   11.3   163    17.6   829.7    0.00 
 244   16:40   0.31   83.7    15   12.8   175    19.8   829.7    0.00 
 244   16:50   0.22   83.3    16   11.8   179    19.3   829.7    0.00 
 244   17:00   0.09   81.8    17   10.4   176    19.8   829.8    0.00 
 244   17:10   0.09   81.2    18    8.3   180    15.7   829.9    0.00 
 244   17:20   0.12   81.4    19    9.3   182    15.1   829.9    0.00 
 244   17:30   0.14   81.9    18   10.4   186    15.1   830.0    0.00 
 244   17:40   0.10   81.4    19    9.6   171    14.7   830.0    0.00 
 244   17:50   0.04   79.9    24    9.3   154    13.8   830.0    0.00 
 244   18:00   0.02   79.2    22    7.8   153    13.4   830.1    0.00 
 244   18:10   0.01   78.7    23    6.3   200    12.6   830.1    0.00 
 244   18:20   0.00   78.7    23    8.3   208    12.9   830.2    0.00 
 244   18:30   0.00   78.2    24    5.9   205     8.8   830.3    0.00 
 244   18:40   0.00   77.4    25    6.0   212    12.1   830.4    0.00 
 244   18:50   0.00   77.7    25    9.8   226    18.0   830.6    0.00 
 244   19:00   0.00   77.2    25   11.2   254    16.5   830.8    0.00 
 244   19:10   0.00   76.7    25   11.4   250    18.3   830.9    0.00 
 244   19:20   0.00   76.4    25   10.3   247    17.4   831.1    0.00 
 244   19:30   0.00   76.0    26   10.2   248    16.1   831.2    0.00 
 244   19:40   0.00   75.6    26    8.6   253    12.9   831.3    0.00 
 244   19:50   0.00   75.5    26    9.7   255    14.9   831.4    0.00 
 244   20:00   0.00   75.4    26    9.1   254    15.1   831.5    0.00 
 244   20:10   0.00   75.3    26   11.2   252    17.4   831.5    0.00 
 244   20:20   0.00   75.3    26   11.1   244    18.8   831.6    0.00 
 244   20:30   0.00   74.9    27    9.4   249    16.0   831.7    0.00 
 244   20:40   0.00   74.4    27    8.2   249    14.1   831.7    0.00 
 244   20:50   0.00   74.4    27    8.9   243    14.1   831.7    0.00 
 244   21:00   0.00   74.5    27    9.0   249    15.4   831.7    0.00 
 244   21:10   0.00   74.4    28    8.9   252    14.8   831.7    0.00 
 244   21:20   0.00   74.0    28    8.4   254    14.4   831.8    0.00 
 244   21:30   0.00   73.5    29    7.5   252    13.7   831.7    0.00 
 244   21:40   0.00   73.4    29    7.2   258    10.1   831.7    0.00 
 244   21:50   0.00   73.0    30    7.9   264    11.8   831.7    0.00 
 244   22:00   0.00   72.8    30    8.1   265     9.4   831.8    0.00 
 244   22:10   0.00   72.7    30    7.2   258     9.5   831.9    0.00 
 244   22:20   0.00   72.7    31    6.6   246     9.7   831.9    0.00 
 244   22:30   0.00   72.5    31    4.8   247     7.7   831.9    0.00 
 244   22:40   0.00   71.9    32    4.2   248     7.2   831.9    0.00 
 244   22:50   0.00   70.5    34    4.7   267     6.4   831.9    0.00 
 244   23:00   0.00   69.7    35    6.3   269     7.4   831.9    0.00 
 244   23:10   0.00   69.5    35    5.8   272     7.5   831.8    0.00 

Return to Badger Spring Valley graphs page.


Western Regional Climate Center,wrcc@dri.edu